Time;durP1;ratioP1;P1;durP2;ratioP2;P2;SDS_P1;SDS_P2;PMS_P1;PMS_P2;Temp;Humidity;BMP_temperature;BMP_pressure;BME280_temperature;BME280_humidity;BME280_pressure;Samples;Min_cycle;Max_cycle;Signal;HPM_P1;HPM_P2
2023/07/10 00:01:04;;;;;;;9.57;4.28;;;22.70;52.20;;;;;;5034778;28;20044;-59
2023/07/10 00:03:31;;;;;;;5.68;3.55;;;22.70;52.30;;;;;;5037977;28;20021;-59
2023/07/10 00:05:58;;;;;;;8.38;3.30;;;22.70;52.40;;;;;;5037387;28;20036;-59
2023/07/10 00:08:23;;;;;;;9.48;3.30;;;22.70;52.60;;;;;;5020609;28;20155;-60
2023/07/10 00:10:50;;;;;;;6.85;3.78;;;22.60;52.60;;;;;;5038515;28;20025;-59
2023/07/10 00:13:21;;;;;;;12.73;3.85;;;22.60;52.60;;;;;;5034348;28;20026;-58
2023/07/10 00:15:51;;;;;;;14.63;4.00;;;22.60;52.70;;;;;;5038959;28;20036;-58
2023/07/10 00:18:20;;;;;;;5.82;3.97;;;22.60;52.70;;;;;;5037624;28;20052;-60
2023/07/10 00:20:46;;;;;;;10.77;3.78;;;22.60;52.60;;;;;;5038712;28;20037;-60
2023/07/10 00:23:12;;;;;;;6.57;3.72;;;22.60;52.60;;;;;;5044043;28;20025;-59
2023/07/10 00:25:38;;;;;;;7.72;3.38;;;22.50;52.60;;;;;;5037366;28;20069;-61
2023/07/10 00:28:18;;;;;;;7.63;3.50;;;22.50;52.60;;;;;;5037815;28;20034;-58
2023/07/10 00:30:45;;;;;;;5.32;3.47;;;22.40;53.40;;;;;;5040257;28;20014;-59
2023/07/10 00:33:12;;;;;;;7.00;3.63;;;22.40;52.50;;;;;;5041036;28;20085;-59
2023/07/10 00:35:38;;;;;;;7.97;3.63;;;22.30;52.80;;;;;;5042545;28;20018;-59
2023/07/10 00:38:17;;;;;;;8.32;3.67;;;22.30;52.80;;;;;;5022962;28;20078;-59
2023/07/10 00:40:46;;;;;;;5.38;3.80;;;22.20;53.60;;;;;;5034465;28;20049;-59
2023/07/10 00:43:42;;;;;;;8.52;3.58;;;22.20;53.00;;;;;;5040628;28;20464;-60
2023/07/10 00:46:19;;;;;;;6.53;3.35;;;22.10;54.20;;;;;;5039805;28;20038;-59
2023/07/10 00:48:53;;;;;;;7.13;3.70;;;22.10;53.90;;;;;;5036383;28;20054;-60
2023/07/10 00:51:24;;;;;;;10.10;3.90;;;22.10;53.90;;;;;;5040027;28;20085;-59
2023/07/10 00:53:51;;;;;;;10.63;4.00;;;22.10;53.60;;;;;;5041606;28;20029;-58
2023/07/10 00:56:19;;;;;;;6.30;3.55;;;22.00;53.50;;;;;;5042564;28;20439;-60
2023/07/10 00:58:49;;;;;;;7.07;3.83;;;22.00;53.80;;;;;;5038675;28;20029;-60
2023/07/10 01:01:22;;;;;;;6.57;3.90;;;22.00;53.90;;;;;;5041099;28;20056;-59
2023/07/10 01:03:52;;;;;;;4.97;3.47;;;22.00;54.40;;;;;;5036356;28;20061;-59
2023/07/10 01:06:29;;;;;;;7.22;3.90;;;21.90;54.30;;;;;;5034335;28;20284;-60
2023/07/10 01:09:05;;;;;;;5.93;3.78;;;21.90;54.20;;;;;;5041619;28;20030;-58
2023/07/10 01:11:34;;;;;;;5.68;3.72;;;21.90;54.70;;;;;;5039216;28;20033;-59
2023/07/10 01:14:01;;;;;;;9.48;3.78;;;21.90;54.20;;;;;;5040819;28;20032;-59
2023/07/10 01:16:30;;;;;;;5.82;3.80;;;21.80;54.10;;;;;;5042286;28;20068;-59
2023/07/10 01:18:55;;;;;;;5.22;3.47;;;21.80;54.20;;;;;;5037029;28;20044;-59
2023/07/10 01:21:25;;;;;;;6.43;3.28;;;21.80;54.30;;;;;;5041022;28;20037;-59
2023/07/10 01:23:52;;;;;;;6.47;3.22;;;21.80;54.50;;;;;;5038569;28;20048;-60
2023/07/10 01:26:18;;;;;;;5.55;3.40;;;21.70;54.30;;;;;;5018909;28;20072;-59
2023/07/10 01:28:44;;;;;;;7.07;3.50;;;21.70;54.50;;;;;;5037575;28;20068;-59
2023/07/10 01:31:13;;;;;;;6.80;3.90;;;21.70;54.50;;;;;;5035275;28;20025;-59
2023/07/10 01:33:46;;;;;;;10.55;3.85;;;21.60;54.70;;;;;;5042791;28;20025;-58
2023/07/10 01:36:16;;;;;;;9.80;3.97;;;21.60;55.10;;;;;;5035633;28;20036;-59
2023/07/10 01:38:48;;;;;;;6.20;3.80;;;21.60;55.00;;;;;;5040436;28;20025;-59
2023/07/10 01:41:31;;;;;;;7.88;3.28;;;21.60;55.30;;;;;;5038091;28;20049;-59
2023/07/10 01:43:57;;;;;;;6.25;3.50;;;21.50;55.30;;;;;;5036872;28;20017;-59
2023/07/10 01:46:25;;;;;;;7.97;3.80;;;21.50;55.00;;;;;;5040965;28;20036;-60
2023/07/10 01:48:57;;;;;;;6.43;3.67;;;21.50;55.20;;;;;;5037926;28;20021;-59
2023/07/10 01:51:24;;;;;;;7.18;3.50;;;21.40;55.50;;;;;;5036738;28;20125;-59
2023/07/10 01:53:50;;;;;;;6.60;3.20;;;21.40;55.20;;;;;;5040501;28;20034;-59
2023/07/10 01:56:18;;;;;;;4.95;3.60;;;21.40;55.10;;;;;;5029499;28;20041;-59
2023/07/10 01:58:43;;;;;;;12.52;3.72;;;21.40;55.30;;;;;;5040281;28;20025;-59
2023/07/10 02:01:09;;;;;;;12.02;4.35;;;21.30;55.40;;;;;;5016422;28;20037;-60
2023/07/10 02:03:35;;;;;;;6.45;3.70;;;21.30;55.40;;;;;;5042346;28;20082;-59
2023/07/10 02:06:01;;;;;;;8.15;3.75;;;21.20;55.40;;;;;;5042574;28;20092;-60
2023/07/10 02:08:27;;;;;;;7.53;3.72;;;21.30;55.50;;;;;;5035191;28;20083;-59
2023/07/10 02:10:53;;;;;;;8.63;3.58;;;21.20;55.60;;;;;;5034683;28;20043;-59
2023/07/10 02:13:19;;;;;;;6.65;3.45;;;21.20;55.70;;;;;;5037901;28;20519;-59
2023/07/10 02:15:44;;;;;;;6.93;3.95;;;21.20;55.70;;;;;;5038257;28;20021;-58
2023/07/10 02:18:10;;;;;;;13.15;3.70;;;21.20;55.60;;;;;;5041026;28;20025;-58
2023/07/10 02:20:36;;;;;;;6.10;3.30;;;21.20;55.70;;;;;;5036517;28;20041;-59
2023/07/10 02:23:01;;;;;;;7.50;3.60;;;21.10;55.70;;;;;;5038114;28;20030;-59
2023/07/10 02:25:27;;;;;;;8.30;3.97;;;21.10;55.70;;;;;;5036971;28;20041;-59
2023/07/10 02:27:52;;;;;;;8.40;3.25;;;21.10;55.80;;;;;;5040594;28;20033;-59
2023/07/10 02:30:18;;;;;;;7.20;4.15;;;21.00;55.80;;;;;;5020222;28;20030;-59
2023/07/10 02:32:44;;;;;;;5.80;3.75;;;21.00;56.60;;;;;;5037417;28;20051;-59
2023/07/10 02:35:10;;;;;;;5.00;3.63;;;20.90;56.10;;;;;;5036575;28;20025;-60
2023/07/10 02:37:36;;;;;;;9.52;3.83;;;20.90;56.10;;;;;;5040430;28;20029;-60
2023/07/10 02:40:03;;;;;;;5.82;3.40;;;20.90;56.30;;;;;;5039877;28;20033;-60
2023/07/10 02:42:28;;;;;;;8.65;3.72;;;20.80;56.40;;;;;;5039104;28;20059;-59
2023/07/10 02:44:54;;;;;;;6.57;3.65;;;20.80;56.50;;;;;;5023396;28;20022;-59
2023/07/10 02:47:20;;;;;;;5.68;3.65;;;20.80;56.60;;;;;;5039790;28;20025;-60
2023/07/10 02:49:45;;;;;;;7.88;3.70;;;20.80;56.80;;;;;;5038769;28;20029;-60
2023/07/10 02:52:11;;;;;;;6.53;3.95;;;20.80;56.80;;;;;;5040588;28;20024;-59
2023/07/10 02:54:36;;;;;;;6.32;3.95;;;20.80;56.90;;;;;;5038485;28;20025;-59
2023/07/10 02:57:02;;;;;;;7.03;3.70;;;20.80;57.00;;;;;;5038833;28;20396;-59
2023/07/10 02:59:28;;;;;;;7.18;3.65;;;20.80;57.20;;;;;;5040079;28;20089;-59
2023/07/10 03:01:54;;;;;;;8.30;4.18;;;20.80;57.00;;;;;;5035859;28;20813;-59
2023/07/10 03:04:20;;;;;;;7.20;3.63;;;20.80;57.30;;;;;;5034204;28;20037;-60
2023/07/10 03:06:49;;;;;;;10.75;4.93;;;20.70;57.30;;;;;;5038853;28;20036;-60
2023/07/10 03:09:16;;;;;;;6.60;3.63;;;20.70;57.50;;;;;;5040664;28;20029;-59
2023/07/10 03:11:41;;;;;;;9.00;4.00;;;20.80;57.20;;;;;;5034890;28;20084;-60
2023/07/10 03:14:07;;;;;;;8.02;3.88;;;20.70;57.30;;;;;;5037941;28;20041;-60
2023/07/10 03:16:32;;;;;;;10.13;4.32;;;20.70;57.20;;;;;;5036998;28;20021;-58
2023/07/10 03:18:58;;;;;;;7.03;3.70;;;20.70;57.30;;;;;;5040073;28;20029;-60
2023/07/10 03:21:24;;;;;;;7.80;3.90;;;20.70;57.40;;;;;;5035791;28;20065;-59
2023/07/10 03:23:50;;;;;;;8.02;3.85;;;20.70;57.50;;;;;;5039138;28;20064;-58
2023/07/10 03:26:16;;;;;;;6.65;3.75;;;20.70;57.60;;;;;;5037860;28;20045;-59
2023/07/10 03:28:42;;;;;;;7.70;3.60;;;20.70;57.70;;;;;;5037974;28;20378;-59
2023/07/10 03:31:08;;;;;;;8.02;3.72;;;20.70;57.60;;;;;;5038615;28;20030;-59
2023/07/10 03:33:34;;;;;;;6.45;4.00;;;20.70;57.50;;;;;;5038272;28;20025;-59
2023/07/10 03:36:07;;;;;;;7.25;4.07;;;20.70;57.60;;;;;;5031728;28;20026;-59
2023/07/10 03:38:33;;;;;;;5.32;3.75;;;20.70;58.30;;;;;;5031721;28;20026;-60
2023/07/10 03:40:59;;;;;;;8.90;3.63;;;20.80;57.80;;;;;;5035024;28;20041;-60
2023/07/10 03:43:26;;;;;;;12.50;4.00;;;20.80;57.80;;;;;;5040116;28;20044;-59
2023/07/10 03:45:53;;;;;;;7.45;3.63;;;20.80;57.80;;;;;;5036793;28;20025;-58
2023/07/10 03:48:19;;;;;;;7.15;3.95;;;20.80;57.70;;;;;;5033111;28;20017;-60
2023/07/10 03:50:45;;;;;;;13.30;4.03;;;20.80;57.70;;;;;;5040424;28;20111;-59
2023/07/10 03:53:11;;;;;;;6.95;4.30;;;20.80;57.80;;;;;;5045128;28;20044;-60
2023/07/10 03:55:36;;;;;;;5.45;3.72;;;20.80;57.90;;;;;;5039392;28;20021;-59
2023/07/10 03:58:02;;;;;;;9.50;4.13;;;20.80;57.90;;;;;;5042488;28;20056;-59
2023/07/10 04:00:28;;;;;;;8.10;3.65;;;20.80;57.90;;;;;;5046168;28;20037;-59
2023/07/10 04:02:54;;;;;;;4.75;3.63;;;20.80;58.10;;;;;;5045075;28;20098;-59
2023/07/10 04:05:19;;;;;;;5.22;3.67;;;20.90;58.10;;;;;;5040631;28;20057;-59
2023/07/10 04:07:45;;;;;;;7.45;3.85;;;20.90;58.20;;;;;;5044045;28;20025;-59
2023/07/10 04:10:10;;;;;;;8.13;4.53;;;20.90;58.10;;;;;;5046559;28;20125;-60
2023/07/10 04:12:40;;;;;;;6.72;3.58;;;20.90;57.80;;;;;;5044737;28;20052;-59
2023/07/10 04:15:06;;;;;;;8.15;3.58;;;20.90;57.90;;;;;;5038451;28;20034;-59
2023/07/10 04:17:32;;;;;;;8.07;3.78;;;21.00;58.00;;;;;;5038113;28;20032;-59
2023/07/10 04:19:57;;;;;;;6.30;4.15;;;21.00;58.70;;;;;;5042929;28;20037;-58
2023/07/10 04:22:23;;;;;;;10.43;3.83;;;21.00;58.30;;;;;;5042185;28;20025;-59
2023/07/10 04:24:49;;;;;;;7.90;3.42;;;21.00;58.40;;;;;;5038451;28;20032;-59
2023/07/10 04:27:14;;;;;;;7.30;4.38;;;21.10;58.40;;;;;;5039631;28;20033;-59
2023/07/10 04:29:40;;;;;;;10.50;3.88;;;21.10;58.30;;;;;;5028804;28;20087;-59
2023/07/10 04:32:08;;;;;;;8.60;4.00;;;21.20;58.10;;;;;;5038172;28;20923;-58
2023/07/10 04:34:33;;;;;;;5.07;3.30;;;21.20;58.00;;;;;;5031612;28;20043;-59
2023/07/10 04:36:59;;;;;;;9.38;4.53;;;21.20;57.90;;;;;;5042043;28;20033;-58
2023/07/10 04:39:26;;;;;;;5.90;3.55;;;21.30;58.10;;;;;;5043939;28;20053;-59
2023/07/10 04:41:51;;;;;;;7.00;3.55;;;21.30;58.00;;;;;;5042882;28;20030;-59
2023/07/10 04:44:17;;;;;;;8.85;3.85;;;21.30;57.90;;;;;;5042916;28;20096;-58
2023/07/10 04:46:43;;;;;;;7.05;3.92;;;21.30;57.70;;;;;;5044157;28;20104;-58
2023/07/10 04:49:08;;;;;;;7.88;4.10;;;21.40;57.60;;;;;;5039001;28;20021;-57
2023/07/10 04:51:34;;;;;;;7.05;4.03;;;21.40;57.70;;;;;;5040897;28;20033;-58
2023/07/10 04:53:59;;;;;;;8.27;4.13;;;21.40;57.60;;;;;;5041103;28;20025;-58
2023/07/10 04:56:25;;;;;;;7.35;4.03;;;21.50;57.50;;;;;;5044586;28;20023;-59
2023/07/10 04:58:53;;;;;;;6.40;3.95;;;21.50;57.40;;;;;;5050186;28;20048;-60
2023/07/10 05:01:21;;;;;;;7.28;3.90;;;21.50;57.40;;;;;;5041567;28;20431;-60
2023/07/10 05:03:48;;;;;;;8.20;3.70;;;21.50;57.30;;;;;;5041323;28;20092;-59
2023/07/10 05:06:14;;;;;;;6.72;3.83;;;21.50;57.60;;;;;;5045530;28;20032;-59
2023/07/10 05:08:40;;;;;;;11.30;4.25;;;21.60;57.80;;;;;;5042828;28;20029;-59
2023/07/10 05:11:05;;;;;;;7.53;4.03;;;21.60;57.70;;;;;;5036905;28;20037;-59
2023/07/10 05:13:31;;;;;;;7.47;4.03;;;21.60;57.50;;;;;;5036939;28;20033;-60
2023/07/10 05:15:58;;;;;;;14.07;4.80;;;21.70;57.60;;;;;;5037221;28;20436;-60
2023/07/10 05:18:27;;;;;;;5.70;3.53;;;21.70;57.70;;;;;;5042554;28;20056;-59
2023/07/10 05:20:53;;;;;;;10.43;4.15;;;21.70;57.70;;;;;;5040184;28;20037;-59
2023/07/10 05:23:22;;;;;;;8.02;4.18;;;21.80;57.60;;;;;;5040567;28;20429;-58
2023/07/10 05:26:01;;;;;;;6.65;4.15;;;21.80;57.80;;;;;;5035660;28;20081;-59
2023/07/10 05:28:27;;;;;;;6.03;3.63;;;21.90;58.00;;;;;;5041486;28;20085;-58
2023/07/10 05:30:54;;;;;;;13.75;4.07;;;21.90;57.50;;;;;;5041335;28;20469;-59
2023/07/10 05:33:20;;;;;;;7.18;3.65;;;21.90;57.80;;;;;;5036025;28;20079;-58
2023/07/10 05:35:51;;;;;;;14.82;3.97;;;22.00;57.80;;;;;;5039949;28;20025;-58
2023/07/10 05:38:16;;;;;;;13.95;5.03;;;22.10;58.20;;;;;;5040589;28;20021;-58
2023/07/10 05:40:42;;;;;;;7.82;4.05;;;22.10;58.00;;;;;;5040713;28;20109;-59
2023/07/10 05:43:08;;;;;;;8.95;4.60;;;22.20;57.90;;;;;;5039886;28;20025;-59
2023/07/10 05:45:33;;;;;;;34.17;4.80;;;22.20;57.80;;;;;;5040695;28;20029;-58
2023/07/10 05:47:59;;;;;;;18.38;4.93;;;22.30;57.90;;;;;;5041240;28;20029;-58
2023/07/10 05:50:24;;;;;;;11.38;4.22;;;22.30;57.90;;;;;;5042169;28;20022;-58
2023/07/10 05:52:50;;;;;;;9.70;4.45;;;22.40;57.90;;;;;;5040584;28;20027;-60
2023/07/10 05:55:16;;;;;;;17.83;4.72;;;22.50;57.80;;;;;;5044145;28;20136;-60
2023/07/10 05:57:41;;;;;;;12.85;4.80;;;22.50;57.80;;;;;;5036232;28;20026;-59
2023/07/10 06:00:07;;;;;;;10.95;4.47;;;22.60;57.60;;;;;;5038090;28;20860;-60
2023/07/10 06:02:33;;;;;;;17.63;4.50;;;22.70;57.40;;;;;;5039995;28;20029;-61
2023/07/10 06:04:59;;;;;;;15.48;4.03;;;22.70;57.20;;;;;;5034378;28;20056;-60
2023/07/10 06:07:24;;;;;;;14.48;4.55;;;22.80;57.00;;;;;;5037983;28;20044;-60
2023/07/10 06:09:50;;;;;;;12.45;4.43;;;22.90;57.00;;;;;;5038084;28;20542;-59
2023/07/10 06:12:16;;;;;;;17.45;5.10;;;23.00;57.10;;;;;;5038334;28;20607;-59
2023/07/10 06:14:41;;;;;;;13.73;4.47;;;23.10;57.90;;;;;;5040265;28;20026;-60
2023/07/10 06:17:07;;;;;;;13.63;4.35;;;23.20;57.20;;;;;;5039157;28;20033;-60
2023/07/10 06:19:32;;;;;;;23.33;4.93;;;23.30;57.20;;;;;;5038939;28;20559;-60
2023/07/10 06:22:09;;;;;;;12.32;4.88;;;23.40;57.20;;;;;;5034843;28;20022;-59
2023/07/10 06:24:35;;;;;;;11.15;4.03;;;23.50;57.60;;;;;;5038332;28;20029;-59
2023/07/10 06:27:02;;;;;;;13.15;3.75;;;23.50;57.10;;;;;;5037117;28;20045;-60
2023/07/10 06:29:28;;;;;;;9.50;3.42;;;23.60;56.90;;;;;;5039487;28;20021;-59
2023/07/10 06:31:54;;;;;;;8.10;3.95;;;23.80;56.90;;;;;;5035162;28;20021;-58
2023/07/10 06:34:20;;;;;;;7.93;4.05;;;23.90;56.70;;;;;;5040631;28;20475;-60
2023/07/10 06:36:45;;;;;;;7.20;3.88;;;24.00;56.60;;;;;;5030596;28;20279;-58
2023/07/10 06:39:11;;;;;;;9.30;4.57;;;24.20;56.50;;;;;;5033938;28;20056;-60
2023/07/10 06:41:36;;;;;;;7.25;3.90;;;24.30;56.30;;;;;;5032337;28;20468;-60
2023/07/10 06:44:02;;;;;;;6.90;3.63;;;24.50;56.00;;;;;;5022791;28;20081;-60
2023/07/10 06:46:28;;;;;;;8.35;4.30;;;24.60;56.00;;;;;;5016876;28;20031;-58
2023/07/10 06:48:53;;;;;;;8.43;4.13;;;24.80;55.70;;;;;;5027083;28;20513;-60
2023/07/10 06:51:19;;;;;;;6.88;3.75;;;24.90;55.40;;;;;;5034532;28;20037;-60
2023/07/10 06:53:45;;;;;;;8.60;4.38;;;25.10;55.20;;;;;;5030115;28;20022;-60
2023/07/10 06:56:10;;;;;;;9.95;4.30;;;25.20;55.10;;;;;;5007961;28;20502;-60
2023/07/10 06:58:36;;;;;;;10.68;3.90;;;25.30;54.80;;;;;;5030653;28;20359;-60
2023/07/10 07:01:03;;;;;;;8.35;3.65;;;25.40;54.70;;;;;;5028550;28;20048;-59
2023/07/10 07:03:29;;;;;;;5.90;3.45;;;25.60;54.90;;;;;;5036735;28;20025;-58
2023/07/10 07:05:55;;;;;;;10.52;3.90;;;25.70;54.50;;;;;;5039040;28;20093;-59
2023/07/10 07:08:23;;;;;;;8.80;4.13;;;25.90;54.40;;;;;;5038695;28;20036;-59
2023/07/10 07:10:51;;;;;;;5.43;3.53;;;26.10;54.20;;;;;;5037795;28;20085;-58
2023/07/10 07:13:18;;;;;;;8.25;4.13;;;26.20;54.20;;;;;;5031931;28;20049;-58
2023/07/10 07:15:48;;;;;;;5.82;3.40;;;26.40;54.30;;;;;;5038254;28;20026;-60
2023/07/10 07:18:13;;;;;;;7.78;4.07;;;26.60;53.90;;;;;;5031890;28;20080;-59
2023/07/10 07:20:39;;;;;;;10.23;4.45;;;26.80;53.60;;;;;;5030107;28;20033;-58
2023/07/10 07:23:05;;;;;;;6.70;3.78;;;26.90;53.30;;;;;;5034412;28;20033;-60
2023/07/10 07:25:30;;;;;;;6.82;3.72;;;27.10;52.90;;;;;;5035219;28;20140;-59
2023/07/10 07:28:00;;;;;;;10.20;4.30;;;27.20;52.40;;;;;;5035406;28;20037;-59
2023/07/10 07:30:27;;;;;;;16.33;3.92;;;27.30;52.40;;;;;;5038821;28;20014;-59
2023/07/10 07:32:53;;;;;;;7.32;3.97;;;27.50;52.20;;;;;;5038777;28;20045;-60
2023/07/10 07:35:19;;;;;;;10.07;4.20;;;27.50;52.10;;;;;;5038061;28;20416;-59
2023/07/10 07:37:45;;;;;;;5.82;3.88;;;27.70;52.00;;;;;;5038407;28;20116;-59
2023/07/10 07:40:11;;;;;;;6.82;3.72;;;27.80;51.70;;;;;;5036619;28;20045;-58
2023/07/10 07:42:37;;;;;;;7.60;4.07;;;28.00;51.40;;;;;;5039914;28;20029;-59
2023/07/10 07:45:03;;;;;;;8.50;4.00;;;28.10;51.40;;;;;;5039958;28;20034;-59
2023/07/10 07:47:29;;;;;;;11.82;3.95;;;28.20;50.70;;;;;;5038636;28;20057;-58
2023/07/10 07:49:55;;;;;;;5.75;3.75;;;28.30;50.60;;;;;;5036853;28;20033;-60
2023/07/10 07:52:21;;;;;;;9.50;4.25;;;28.40;50.20;;;;;;5039170;28;20014;-60
2023/07/10 07:54:48;;;;;;;7.80;4.55;;;28.40;50.80;;;;;;5032941;28;20025;-58
2023/07/10 07:57:14;;;;;;;8.85;3.90;;;28.40;49.80;;;;;;5034952;28;20047;-59
2023/07/10 07:59:39;;;;;;;6.03;3.65;;;28.50;50.50;;;;;;5036464;28;20093;-59
2023/07/10 08:02:08;;;;;;;6.63;3.85;;;28.50;50.00;;;;;;5038526;28;20179;-59
2023/07/10 08:04:33;;;;;;;6.20;3.72;;;28.50;49.70;;;;;;5037832;28;20531;-60
2023/07/10 08:06:59;;;;;;;11.38;4.00;;;28.60;49.60;;;;;;5038603;28;20022;-59
2023/07/10 08:09:25;;;;;;;6.63;3.80;;;28.60;49.40;;;;;;5037199;28;20026;-58
2023/07/10 08:11:50;;;;;;;9.73;3.95;;;28.60;49.80;;;;;;5038593;28;20029;-59
2023/07/10 08:14:16;;;;;;;6.75;4.60;;;28.80;50.40;;;;;;5019727;28;20029;-59
2023/07/10 08:16:41;;;;;;;9.40;4.35;;;28.90;50.20;;;;;;5035596;28;20745;-59
2023/07/10 08:19:07;;;;;;;8.30;3.60;;;29.10;49.60;;;;;;5037234;28;20568;-61
2023/07/10 08:21:33;;;;;;;10.90;3.70;;;29.30;48.50;;;;;;5037503;28;20041;-60
2023/07/10 08:23:58;;;;;;;5.88;3.58;;;29.40;48.40;;;;;;5038406;28;20062;-58
2023/07/10 08:26:24;;;;;;;9.00;3.45;;;29.60;48.20;;;;;;5016315;28;20079;-59
2023/07/10 08:28:50;;;;;;;10.30;3.97;;;29.70;47.80;;;;;;5034511;28;20029;-59
2023/07/10 08:31:17;;;;;;;7.55;3.47;;;29.80;47.60;;;;;;5037775;28;20080;-59
2023/07/10 08:33:42;;;;;;;8.10;3.38;;;30.10;47.50;;;;;;5038330;28;20025;-59
2023/07/10 08:36:08;;;;;;;9.82;3.70;;;30.20;47.10;;;;;;5041471;28;20033;-60
2023/07/10 08:38:35;;;;;;;5.78;3.78;;;30.30;47.10;;;;;;5040277;28;20121;-60
2023/07/10 08:41:12;;;;;;;6.93;3.88;;;30.50;46.30;;;;;;5039955;28;20095;-60
2023/07/10 08:43:39;;;;;;;12.63;4.13;;;30.70;45.80;;;;;;5036983;28;20028;-60
2023/07/10 08:46:14;;;;;;;7.07;3.65;;;30.70;45.70;;;;;;5042180;28;20044;-60
2023/07/10 08:48:51;;;;;;;10.13;3.58;;;30.80;45.00;;;;;;5035175;28;20014;-59
2023/07/10 08:51:19;;;;;;;10.18;3.90;;;30.90;45.30;;;;;;5038538;28;20040;-58
2023/07/10 08:54:08;;;;;;;7.65;3.40;;;31.00;44.80;;;;;;5040803;28;20089;-60
2023/07/10 08:56:42;;;;;;;14.57;3.95;;;31.10;44.50;;;;;;5040414;28;20036;-58
2023/07/10 08:59:26;;;;;;;7.13;4.15;;;31.30;45.90;;;;;;5035163;28;20036;-59
2023/07/10 09:01:52;;;;;;;4.57;3.03;;;31.40;44.80;;;;;;5041506;28;20037;-60
2023/07/10 09:04:20;;;;;;;6.45;3.03;;;31.50;45.30;;;;;;5035915;28;20049;-62
2023/07/10 09:06:52;;;;;;;8.40;3.22;;;31.60;44.20;;;;;;5042750;28;20028;-59
2023/07/10 09:09:43;;;;;;;7.15;3.47;;;31.70;43.90;;;;;;5018450;28;20022;-61
2023/07/10 09:12:36;;;;;;;5.57;2.80;;;31.80;43.50;;;;;;5037463;28;20033;-61
2023/07/10 09:15:13;;;;;;;7.85;3.50;;;31.90;44.00;;;;;;5039061;28;20033;-60
2023/07/10 09:18:05;;;;;;;5.38;3.10;;;32.00;43.30;;;;;;5039180;28;20084;-60
2023/07/10 09:20:31;;;;;;;5.22;3.08;;;32.10;42.90;;;;;;5035673;28;20101;-61
2023/07/10 09:23:03;;;;;;;7.07;3.42;;;32.20;43.60;;;;;;5036836;28;20049;-60
2023/07/10 09:25:29;;;;;;;6.75;3.00;;;32.30;43.30;;;;;;5038970;28;20105;-60
2023/07/10 09:27:58;;;;;;;5.65;3.45;;;32.40;42.40;;;;;;5037492;28;20052;-60
2023/07/10 09:30:36;;;;;;;9.52;3.40;;;32.50;41.90;;;;;;5043167;28;20097;-60
2023/07/10 09:33:08;;;;;;;8.45;3.58;;;32.50;41.70;;;;;;5036068;28;20025;-60
2023/07/10 09:35:39;;;;;;;6.88;3.75;;;32.50;41.50;;;;;;5043372;28;20388;-59
2023/07/10 09:38:05;;;;;;;8.30;2.97;;;32.50;41.80;;;;;;5030838;28;20081;-60
2023/07/10 09:40:46;;;;;;;6.03;3.42;;;32.50;41.70;;;;;;5040082;28;20033;-59
2023/07/10 09:43:23;;;;;;;7.75;3.38;;;32.50;41.90;;;;;;5038428;28;20045;-59
2023/07/10 09:45:51;;;;;;;12.23;3.65;;;32.50;41.30;;;;;;5037113;28;20544;-61
2023/07/10 09:48:36;;;;;;;4.97;3.25;;;32.50;41.20;;;;;;5037492;28;20063;-60
2023/07/10 09:51:07;;;;;;;5.80;3.10;;;32.50;41.30;;;;;;5037894;28;20128;-61
2023/07/10 09:53:37;;;;;;;6.43;3.40;;;32.50;41.90;;;;;;5037868;28;20048;-59
2023/07/10 09:56:03;;;;;;;5.60;3.42;;;32.60;41.50;;;;;;5037426;28;20088;-58
2023/07/10 09:58:29;;;;;;;11.77;3.50;;;32.70;41.20;;;;;;5030878;28;20056;-60
2023/07/10 10:01:00;;;;;;;6.82;3.80;;;32.70;41.00;;;;;;5031113;28;20033;-60
2023/07/10 10:03:38;;;;;;;5.55;3.20;;;32.70;41.20;;;;;;5034839;28;20049;-60
2023/07/10 10:06:04;;;;;;;7.78;3.08;;;32.70;40.90;;;;;;5037829;28;20052;-60
2023/07/10 10:08:47;;;;;;;5.88;3.10;;;32.80;41.10;;;;;;5034433;28;20017;-59
2023/07/10 10:11:13;;;;;;;8.27;3.57;;;32.80;40.70;;;;;;5038420;28;20033;-60
2023/07/10 10:13:47;;;;;;;5.30;3.20;;;32.90;41.00;;;;;;5037267;28;20029;-61
2023/07/10 10:16:30;;;;;;;;;;;32.90;40.60;;;;;;5036201;28;20067;-59
2023/07/10 10:19:04;;;;;;;7.32;3.20;;;33.00;41.10;;;;;;5037011;28;19967;-60
2023/07/10 10:21:33;;;;;;;8.45;3.30;;;33.00;40.70;;;;;;5039195;28;20033;-60
2023/07/10 10:24:04;;;;;;;7.93;3.58;;;33.10;40.70;;;;;;5037655;28;20034;-61
2023/07/10 10:26:57;;;;;;;7.57;3.30;;;33.20;40.80;;;;;;5039986;28;20385;-58
2023/07/10 10:29:53;;;;;;;3.65;3.08;;;33.30;39.80;;;;;;5035200;28;20052;-59
2023/07/10 10:32:37;;;;;;;4.45;2.97;;;33.40;39.50;;;;;;5038084;28;20052;-60
2023/07/10 10:35:28;;;;;;;6.20;3.15;;;33.40;39.60;;;;;;5038235;28;20029;-59
2023/07/10 10:38:00;;;;;;;5.20;3.08;;;33.40;39.40;;;;;;5039383;28;20468;-61
2023/07/10 10:40:37;;;;;;;5.35;3.15;;;33.50;39.00;;;;;;5037195;28;20069;-59
2023/07/10 10:43:24;;;;;;;4.30;2.95;;;33.50;38.30;;;;;;5037857;28;20464;-59
2023/07/10 10:45:56;;;;;;;3.45;2.88;;;33.50;38.10;;;;;;5021062;28;20116;-58
2023/07/10 10:48:47;;;;;;;4.82;2.80;;;33.50;39.00;;;;;;5038061;28;20523;-59
2023/07/10 10:51:24;;;;;;;5.38;2.92;;;33.50;38.30;;;;;;5039326;28;20033;-61
2023/07/10 10:53:53;;;;;;;7.68;3.30;;;33.50;38.00;;;;;;5040292;28;20033;-59
2023/07/10 10:56:21;;;;;;;6.93;3.20;;;33.60;37.90;;;;;;5039781;28;20033;-61
2023/07/10 10:59:17;;;;;;;9.20;3.78;;;33.60;38.20;;;;;;5035648;28;20099;-60
2023/07/10 11:01:57;;;;;;;5.60;3.00;;;33.70;38.60;;;;;;5040765;28;20064;-60
2023/07/10 11:04:34;;;;;;;4.35;2.80;;;33.70;37.50;;;;;;5037736;28;20021;-60
2023/07/10 11:07:13;;;;;;;5.68;3.03;;;33.80;38.50;;;;;;5037756;28;20028;-60
2023/07/10 11:09:47;;;;;;;6.53;3.10;;;33.90;37.80;;;;;;5037013;28;20033;-59
2023/07/10 11:12:18;;;;;;;6.75;3.22;;;34.00;37.40;;;;;;5039701;28;20101;-60
2023/07/10 11:14:48;;;;;;;7.70;3.10;;;34.00;36.70;;;;;;5038623;28;20017;-61
2023/07/10 11:17:15;;;;;;;6.32;2.60;;;34.10;36.70;;;;;;5036667;28;20041;-61
2023/07/10 11:19:41;;;;;;;7.90;3.00;;;34.10;36.80;;;;;;5039532;28;20041;-59
2023/07/10 11:22:35;;;;;;;5.70;2.92;;;34.20;37.30;;;;;;5039628;28;20036;-61
2023/07/10 11:25:02;;;;;;;6.15;3.38;;;34.30;36.40;;;;;;5027461;28;20040;-60
2023/07/10 11:27:30;;;;;;;4.88;3.15;;;34.30;36.10;;;;;;5035101;28;20044;-59
2023/07/10 11:30:05;;;;;;;7.15;2.78;;;34.30;35.40;;;;;;5031746;28;20026;-60
2023/07/10 11:32:37;;;;;;;7.53;2.92;;;34.30;35.30;;;;;;5033347;28;20072;-60
2023/07/10 11:35:19;;;;;;;7.72;3.00;;;34.20;36.70;;;;;;5037457;28;20045;-60
2023/07/10 11:37:48;;;;;;;7.32;4.03;;;34.30;36.40;;;;;;5038545;28;20055;-61
2023/07/10 11:40:29;;;;;;;8.57;3.20;;;34.40;36.90;;;;;;5034159;28;20037;-60
2023/07/10 11:42:56;;;;;;;6.20;2.92;;;34.50;36.50;;;;;;5038069;28;20051;-61
2023/07/10 11:45:35;;;;;;;10.45;3.20;;;34.60;35.90;;;;;;5032732;28;20053;-60
2023/07/10 11:48:01;;;;;;;8.18;3.38;;;34.70;35.60;;;;;;5003052;28;20026;-60
2023/07/10 11:50:29;;;;;;;8.20;3.13;;;34.70;35.90;;;;;;5038777;28;20081;-62
2023/07/10 11:53:21;;;;;;;7.65;3.20;;;34.60;35.60;;;;;;5036477;28;20037;-61
2023/07/10 11:56:06;;;;;;;5.30;2.72;;;34.50;35.50;;;;;;5034293;28;20025;-60
2023/07/10 11:58:37;;;;;;;3.97;2.75;;;34.40;36.00;;;;;;5036070;28;20028;-61
2023/07/10 12:01:20;;;;;;;9.57;2.88;;;34.10;35.40;;;;;;5024536;28;20079;-61
2023/07/10 12:03:46;;;;;;;5.60;3.20;;;33.90;35.50;;;;;;5037849;28;20092;-61
2023/07/10 12:06:17;;;;;;;6.07;3.00;;;33.70;35.80;;;;;;5030662;28;20033;-60
2023/07/10 12:08:48;;;;;;;7.13;3.22;;;33.40;36.20;;;;;;5037359;28;20025;-60
2023/07/10 12:11:45;;;;;;;7.93;3.65;;;33.30;36.60;;;;;;5043073;28;20025;-61
2023/07/10 12:14:12;;;;;;;4.40;3.20;;;33.00;37.20;;;;;;5022137;28;20049;-60
2023/07/10 12:16:54;;;;;;;11.02;3.50;;;32.90;37.50;;;;;;5039862;28;20037;-60
2023/07/10 12:19:26;;;;;;;8.10;3.40;;;32.70;38.50;;;;;;5042106;28;20076;-60
2023/07/10 12:21:52;;;;;;;13.52;3.40;;;32.50;39.50;;;;;;5040114;28;20045;-60
2023/07/10 12:24:19;;;;;;;9.05;3.67;;;32.30;40.40;;;;;;5041151;28;20085;-60
2023/07/10 12:26:56;;;;;;;7.55;3.33;;;32.20;41.40;;;;;;5041834;28;20103;-61
2023/07/10 12:29:22;;;;;;;5.47;3.22;;;32.00;42.80;;;;;;5040807;28;20037;-60
2023/07/10 12:31:48;;;;;;;6.20;3.38;;;31.90;43.40;;;;;;5042698;28;20429;-60
2023/07/10 12:34:28;;;;;;;5.25;3.30;;;31.90;44.20;;;;;;5048784;28;20029;-59
2023/07/10 12:36:55;;;;;;;3.92;3.38;;;31.80;44.90;;;;;;5037937;28;20033;-60
2023/07/10 12:39:22;;;;;;;7.53;3.55;;;31.80;44.50;;;;;;5036196;28;20068;-59
2023/07/10 12:41:53;;;;;;;5.55;3.00;;;31.80;44.70;;;;;;5038918;28;20040;-60
2023/07/10 12:44:25;;;;;;;6.13;3.20;;;31.70;44.40;;;;;;5021755;28;20041;-59
2023/07/10 12:46:56;;;;;;;6.57;3.10;;;31.60;44.80;;;;;;5037925;28;20369;-60
2023/07/10 12:49:28;;;;;;;6.40;3.13;;;31.60;44.30;;;;;;5045159;28;20036;-61
2023/07/10 12:51:53;;;;;;;6.43;3.08;;;31.60;43.70;;;;;;5041422;28;20022;-60
2023/07/10 12:54:24;;;;;;;6.60;3.10;;;31.60;43.70;;;;;;5041716;28;20029;-59
2023/07/10 12:56:53;;;;;;;7.68;3.33;;;31.60;43.80;;;;;;5039532;28;20056;-60